Time;durP1;ratioP1;P1;durP2;ratioP2;P2;SDS_P1;SDS_P2;PMS_P1;PMS_P2;Temp;Humidity;BMP_temperature;BMP_pressure;BME280_temperature;BME280_humidity;BME280_pressure;Samples;Min_cycle;Max_cycle;Signal;HPM_P1;HPM_P2
2022/09/16 00:00:35;;;;;;;3.13;1.20;;;12.70;99.90;;;;;;5114573;28;20687;-43
2022/09/16 00:03:01;;;;;;;5.90;1.10;;;12.40;99.90;;;;;;5114177;28;20281;-41
2022/09/16 00:05:27;;;;;;;5.13;1.10;;;12.40;99.90;;;;;;5113976;28;20660;-43
2022/09/16 00:07:54;;;;;;;2.77;1.17;;;12.40;99.90;;;;;;5114037;28;20200;-42
2022/09/16 00:10:20;;;;;;;4.20;1.43;;;12.40;99.90;;;;;;5114281;28;20178;-43
2022/09/16 00:12:47;;;;;;;5.03;1.10;;;12.40;99.90;;;;;;5114176;28;20186;-41
2022/09/16 00:15:13;;;;;;;6.73;1.27;;;12.40;99.90;;;;;;5113899;28;20307;-41
2022/09/16 00:17:39;;;;;;;1.00;0.73;;;12.40;99.90;;;;;;5114490;28;20213;-42
2022/09/16 00:20:06;;;;;;;1.60;0.93;;;12.30;99.90;;;;;;5113952;28;20273;-41
2022/09/16 00:22:31;;;;;;;2.33;1.00;;;12.30;99.90;;;;;;5111562;28;20286;-43
2022/09/16 00:24:57;;;;;;;6.60;1.30;;;12.30;99.90;;;;;;5113782;28;20218;-41
2022/09/16 00:27:23;;;;;;;4.07;1.23;;;12.20;99.90;;;;;;5113909;28;20261;-43
2022/09/16 00:29:49;;;;;;;9.17;1.10;;;12.20;99.90;;;;;;5095570;28;20185;-41
2022/09/16 00:32:15;;;;;;;4.37;1.20;;;12.20;99.90;;;;;;5112509;28;20185;-43
2022/09/16 00:34:40;;;;;;;2.00;1.10;;;12.10;99.90;;;;;;5112766;28;20284;-42
2022/09/16 00:37:09;;;;;;;2.83;1.30;;;12.10;99.90;;;;;;5113883;28;20258;-37
2022/09/16 00:39:36;;;;;;;3.53;1.10;;;12.10;99.90;;;;;;5113616;28;20576;-39
2022/09/16 00:42:03;;;;;;;4.53;1.40;;;12.10;99.90;;;;;;5113790;28;20178;-39
2022/09/16 00:44:53;;;;;;;5.03;1.30;;;12.10;99.90;;;;;;5113424;28;20182;-38
2022/09/16 00:47:27;;;;;;;3.27;1.13;;;12.00;99.90;;;;;;5112268;28;20186;-40
2022/09/16 00:49:59;;;;;;;2.50;1.10;;;12.00;99.90;;;;;;5113528;28;20235;-39
2022/09/16 00:52:27;;;;;;;2.53;1.10;;;12.00;99.90;;;;;;5113837;28;20178;-40
2022/09/16 00:54:53;;;;;;;7.30;1.60;;;11.90;99.90;;;;;;5113383;28;20686;-40
2022/09/16 00:57:19;;;;;;;4.80;1.40;;;12.00;99.90;;;;;;5113603;28;20257;-38
2022/09/16 00:59:51;;;;;;;5.93;1.57;;;12.00;99.90;;;;;;5113271;28;20553;-39
2022/09/16 01:02:19;;;;;;;4.33;1.90;;;12.00;99.90;;;;;;5112166;28;20204;-40
2022/09/16 01:04:59;;;;;;;3.07;1.33;;;12.00;99.90;;;;;;5113556;28;20162;-40
2022/09/16 01:07:41;;;;;;;10.47;1.90;;;12.00;99.90;;;;;;5113681;28;20158;-39
2022/09/16 01:10:07;;;;;;;3.23;1.60;;;12.10;99.90;;;;;;5113871;28;20210;-38
2022/09/16 01:12:34;;;;;;;5.37;1.70;;;12.10;99.90;;;;;;5113640;28;20224;-40
2022/09/16 01:15:02;;;;;;;6.67;2.03;;;12.10;99.90;;;;;;5113571;28;20229;-39
2022/09/16 01:18:03;;;;;;;6.07;1.60;;;12.10;99.90;;;;;;5113474;28;20186;-40
2022/09/16 01:20:31;;;;;;;3.00;1.50;;;12.20;99.90;;;;;;5113427;28;20165;-38
2022/09/16 01:23:09;;;;;;;3.57;1.53;;;12.20;99.90;;;;;;5113199;28;20229;-40
2022/09/16 01:26:11;;;;;;;8.50;1.73;;;12.20;99.90;;;;;;5113595;28;20701;-37
2022/09/16 01:28:57;;;;;;;5.30;1.43;;;12.20;99.90;;;;;;5112334;28;20180;-38
2022/09/16 01:31:47;;;;;;;3.50;1.67;;;12.20;99.90;;;;;;5113581;28;20166;-37
2022/09/16 01:34:21;;;;;;;3.67;1.90;;;12.30;99.90;;;;;;5115112;28;20173;-39
2022/09/16 01:36:50;;;;;;;3.70;1.43;;;12.20;99.90;;;;;;5117433;28;20285;-40
2022/09/16 01:39:33;;;;;;;3.60;1.67;;;12.30;99.90;;;;;;5117503;28;20184;-40
2022/09/16 01:42:24;;;;;;;7.97;1.80;;;12.30;99.90;;;;;;5117807;28;20194;-37
2022/09/16 01:45:22;;;;;;;2.87;1.37;;;12.20;99.90;;;;;;5117157;28;20165;-43
2022/09/16 01:48:04;;;;;;;4.30;1.50;;;12.20;99.90;;;;;;5117337;28;20171;-43
2022/09/16 01:50:39;;;;;;;6.03;1.70;;;12.20;99.90;;;;;;5116083;28;20702;-43
2022/09/16 01:53:22;;;;;;;3.10;1.17;;;12.20;99.90;;;;;;5116283;28;20155;-42
2022/09/16 01:56:03;;;;;;;3.90;1.67;;;12.20;99.90;;;;;;5117485;28;20198;-42
2022/09/16 01:58:46;;;;;;;5.30;1.83;;;12.20;99.90;;;;;;5116835;28;20185;-43
2022/09/16 02:01:17;;;;;;;6.17;2.20;;;12.20;99.90;;;;;;5116831;28;20185;-43
2022/09/16 02:03:48;;;;;;;4.80;1.80;;;12.20;99.90;;;;;;5115402;28;20208;-43
2022/09/16 02:06:21;;;;;;;3.63;1.40;;;12.10;99.90;;;;;;5117132;28;20560;-41
2022/09/16 02:08:57;;;;;;;6.83;1.70;;;12.00;99.90;;;;;;5116937;28;20245;-42
2022/09/16 02:11:24;;;;;;;7.23;1.57;;;11.90;99.90;;;;;;5116987;28;20170;-42
2022/09/16 02:14:05;;;;;;;2.03;1.50;;;11.90;99.90;;;;;;5117316;28;20174;-42
2022/09/16 02:16:36;;;;;;;4.13;1.63;;;11.80;99.90;;;;;;5117806;28;20216;-42
2022/09/16 02:19:09;;;;;;;5.80;1.60;;;11.70;99.90;;;;;;5116905;28;20185;-43
2022/09/16 02:21:38;;;;;;;3.67;1.20;;;11.70;99.90;;;;;;5116560;28;20170;-43
2022/09/16 02:24:12;;;;;;;5.87;1.60;;;11.70;99.90;;;;;;5116136;28;20349;-44
2022/09/16 02:26:43;;;;;;;4.97;1.77;;;11.60;99.90;;;;;;5116924;28;20292;-44
2022/09/16 02:29:16;;;;;;;4.60;1.57;;;11.60;99.90;;;;;;5116586;28;20172;-37
2022/09/16 02:31:44;;;;;;;4.00;2.07;;;11.50;99.90;;;;;;5116527;28;20529;-39
2022/09/16 02:34:16;;;;;;;5.90;1.87;;;11.50;99.90;;;;;;5115001;28;20241;-39
2022/09/16 02:36:45;;;;;;;4.00;1.80;;;11.50;99.90;;;;;;5115546;28;20249;-39
2022/09/16 02:39:26;;;;;;;5.77;1.87;;;11.50;99.90;;;;;;5116557;28;20186;-40
2022/09/16 02:41:54;;;;;;;4.93;1.67;;;11.50;99.90;;;;;;5116346;28;20253;-41
2022/09/16 02:44:20;;;;;;;4.63;1.83;;;11.40;99.90;;;;;;5116525;28;20239;-42
2022/09/16 02:47:12;;;;;;;5.53;1.90;;;11.50;99.90;;;;;;5115468;28;20289;-40
2022/09/16 02:49:43;;;;;;;5.73;1.60;;;11.40;99.90;;;;;;5114800;28;20173;-39
2022/09/16 02:52:15;;;;;;;6.60;1.97;;;11.50;99.90;;;;;;5116532;28;20572;-43
2022/09/16 02:54:58;;;;;;;5.83;2.00;;;11.50;99.90;;;;;;5116555;28;20261;-39
2022/09/16 02:57:24;;;;;;;5.53;1.83;;;11.50;99.90;;;;;;5114798;28;20242;-45
2022/09/16 02:59:50;;;;;;;9.83;1.93;;;11.50;99.90;;;;;;5116421;28;20181;-44
2022/09/16 03:02:16;;;;;;;8.20;1.70;;;11.60;99.90;;;;;;5115835;28;20240;-38
2022/09/16 03:04:42;;;;;;;4.40;1.57;;;11.50;99.90;;;;;;5114777;28;20181;-42
2022/09/16 03:07:10;;;;;;;4.73;1.53;;;11.60;99.90;;;;;;5116235;28;20583;-39
2022/09/16 03:09:39;;;;;;;5.93;2.00;;;11.60;99.90;;;;;;5116184;28;20186;-44
2022/09/16 03:12:21;;;;;;;4.53;1.47;;;11.60;99.90;;;;;;5115499;28;20181;-42
2022/09/16 03:14:52;;;;;;;7.23;1.47;;;11.60;99.90;;;;;;5115477;28;20165;-42
2022/09/16 03:17:27;;;;;;;3.70;1.50;;;11.60;99.90;;;;;;5115949;28;20189;-42
2022/09/16 03:20:11;;;;;;;3.73;1.70;;;11.60;99.90;;;;;;5114435;28;20169;-41
2022/09/16 03:23:03;;;;;;;4.70;1.37;;;11.60;99.90;;;;;;5115677;28;20682;-42
2022/09/16 03:25:40;;;;;;;5.20;1.73;;;11.60;99.90;;;;;;5115550;28;20618;-43
2022/09/16 03:28:20;;;;;;;6.27;2.07;;;11.60;99.90;;;;;;5115867;28;20680;-41
2022/09/16 03:30:58;;;;;;;7.17;1.77;;;11.60;99.90;;;;;;5115815;28;20162;-41
2022/09/16 03:33:32;;;;;;;6.97;1.70;;;11.60;99.90;;;;;;5115520;28;20254;-42
2022/09/16 03:36:02;;;;;;;5.97;1.63;;;11.60;99.90;;;;;;5116126;28;20300;-37
2022/09/16 03:38:28;;;;;;;7.13;1.57;;;11.90;99.90;;;;;;5115117;28;20263;-38
2022/09/16 03:40:55;;;;;;;4.73;1.70;;;11.50;99.90;;;;;;5114999;28;20181;-38
2022/09/16 03:43:20;;;;;;;5.20;1.63;;;11.50;99.90;;;;;;5114964;28;20207;-36
2022/09/16 03:45:46;;;;;;;3.07;1.20;;;11.50;99.90;;;;;;5114817;28;20197;-39
2022/09/16 03:48:13;;;;;;;4.43;1.53;;;11.40;99.90;;;;;;5114777;28;20186;-39
2022/09/16 03:50:38;;;;;;;8.07;1.80;;;11.40;99.90;;;;;;5113407;28;20283;-38
2022/09/16 03:53:04;;;;;;;2.83;1.23;;;11.30;99.90;;;;;;5114539;28;20683;-39
2022/09/16 03:55:30;;;;;;;2.63;1.23;;;11.30;99.90;;;;;;5114429;28;20199;-38
2022/09/16 03:57:55;;;;;;;4.40;1.30;;;11.20;99.90;;;;;;5114368;28;20184;-38
2022/09/16 04:00:22;;;;;;;5.80;1.90;;;11.20;99.90;;;;;;5114453;28;20200;-39
2022/09/16 04:02:47;;;;;;;5.27;1.80;;;11.20;99.90;;;;;;5113206;28;20208;-38
2022/09/16 04:05:13;;;;;;;2.03;1.33;;;11.10;99.90;;;;;;5114799;28;20211;-38
2022/09/16 04:07:39;;;;;;;2.70;1.27;;;11.10;99.90;;;;;;5114375;28;20582;-37
2022/09/16 04:10:05;;;;;;;6.30;1.40;;;11.00;99.90;;;;;;5115058;28;20185;-39
2022/09/16 04:12:31;;;;;;;6.73;1.70;;;11.00;99.90;;;;;;5114864;28;20204;-40
2022/09/16 04:14:57;;;;;;;9.13;1.77;;;11.10;99.90;;;;;;5114461;28;20213;-37
2022/09/16 04:17:23;;;;;;;6.43;2.03;;;11.10;99.90;;;;;;5114410;28;20187;-38
2022/09/16 04:19:49;;;;;;;6.80;1.80;;;11.10;99.90;;;;;;5114739;28;20504;-39
2022/09/16 04:22:14;;;;;;;8.47;1.60;;;11.10;99.90;;;;;;5120118;28;20230;-40
2022/09/16 04:24:40;;;;;;;5.97;1.43;;;11.20;99.90;;;;;;5114427;28;20615;-38
2022/09/16 04:27:05;;;;;;;4.00;1.50;;;11.20;99.90;;;;;;5112653;28;20638;-39
2022/09/16 04:29:31;;;;;;;4.87;1.40;;;11.30;99.90;;;;;;5112650;28;20180;-38
2022/09/16 04:31:57;;;;;;;3.87;1.40;;;11.30;99.90;;;;;;5114109;28;20636;-37
2022/09/16 04:34:23;;;;;;;4.67;1.63;;;11.30;99.90;;;;;;5113078;28;20189;-38
2022/09/16 04:36:49;;;;;;;6.30;1.60;;;11.30;99.90;;;;;;5113871;28;20204;-38
2022/09/16 04:39:14;;;;;;;3.17;1.60;;;11.30;99.90;;;;;;5114223;28;20185;-38
2022/09/16 04:41:40;;;;;;;3.17;1.47;;;11.30;99.90;;;;;;5114332;28;20197;-38
2022/09/16 04:44:06;;;;;;;5.03;1.80;;;11.40;99.90;;;;;;5112991;28;20293;-38
2022/09/16 04:46:32;;;;;;;4.17;1.17;;;11.40;99.90;;;;;;5114314;28;20676;-37
2022/09/16 04:48:58;;;;;;;5.43;1.60;;;11.40;99.90;;;;;;5114213;28;20268;-39
2022/09/16 04:51:26;;;;;;;3.07;1.20;;;11.40;99.90;;;;;;5114247;28;20170;-39
2022/09/16 04:53:53;;;;;;;5.97;1.57;;;11.40;99.90;;;;;;5113906;28;20181;-37
2022/09/16 04:56:23;;;;;;;8.57;1.73;;;11.40;99.90;;;;;;5113512;28;20201;-38
2022/09/16 04:58:51;;;;;;;5.27;1.20;;;11.40;99.90;;;;;;5095872;28;20187;-40
2022/09/16 05:01:19;;;;;;;3.30;1.30;;;11.40;99.90;;;;;;5113896;28;20179;-38
2022/09/16 05:03:47;;;;;;;4.93;1.37;;;11.40;99.90;;;;;;5113980;28;20674;-38
2022/09/16 05:06:19;;;;;;;2.80;1.20;;;11.40;99.90;;;;;;5114542;28;20196;-38
2022/09/16 05:08:44;;;;;;;5.20;1.30;;;11.40;99.90;;;;;;5115869;28;20172;-38
2022/09/16 05:11:13;;;;;;;4.70;1.30;;;11.40;99.90;;;;;;5117997;27;20540;-38
2022/09/16 05:13:39;;;;;;;4.20;1.40;;;11.40;99.90;;;;;;5117183;28;20272;-38
2022/09/16 05:16:08;;;;;;;3.03;1.40;;;11.40;99.90;;;;;;5118779;28;20201;-40
2022/09/16 05:18:36;;;;;;;2.53;1.47;;;11.40;99.90;;;;;;5116726;28;20181;-38
2022/09/16 05:21:04;;;;;;;4.17;1.30;;;11.40;99.90;;;;;;5118258;28;20626;-39
2022/09/16 05:23:31;;;;;;;8.07;1.40;;;11.40;99.90;;;;;;5117827;28;20205;-40
2022/09/16 05:26:05;;;;;;;2.33;1.20;;;11.40;99.90;;;;;;5117652;28;20209;-39
2022/09/16 05:28:31;;;;;;;2.90;1.03;;;11.40;99.90;;;;;;5116732;28;20652;-40
2022/09/16 05:31:14;;;;;;;3.93;1.30;;;11.40;99.90;;;;;;5117722;28;20172;-38
2022/09/16 05:33:42;;;;;;;3.13;1.30;;;11.50;99.90;;;;;;5117833;28;20168;-38
2022/09/16 05:36:11;;;;;;;5.30;1.63;;;11.50;99.90;;;;;;5117790;28;20663;-39
2022/09/16 05:38:37;;;;;;;6.60;1.40;;;11.50;99.90;;;;;;5116304;28;20173;-41
2022/09/16 05:41:04;;;;;;;7.20;1.70;;;11.50;99.90;;;;;;5117482;28;20539;-38
2022/09/16 05:43:30;;;;;;;2.83;0.93;;;11.50;99.90;;;;;;5117648;28;20192;-39
2022/09/16 05:45:56;;;;;;;5.77;1.60;;;11.50;99.90;;;;;;5117242;28;20198;-41
2022/09/16 05:48:22;;;;;;;2.57;1.20;;;11.50;99.90;;;;;;5117715;28;20177;-38
2022/09/16 05:51:05;;;;;;;11.43;1.93;;;11.50;99.90;;;;;;5117357;27;20178;-37
2022/09/16 05:53:32;;;;;;;4.40;1.70;;;11.90;99.90;;;;;;5118281;28;20172;-39
2022/09/16 05:55:59;;;;;;;5.40;1.30;;;11.60;99.90;;;;;;5116370;28;20208;-40
2022/09/16 05:58:26;;;;;;;5.53;1.50;;;11.60;99.90;;;;;;5117247;28;20225;-37
2022/09/16 06:01:01;;;;;;;3.60;1.17;;;11.60;99.90;;;;;;5117184;28;20191;-38
2022/09/16 06:03:27;;;;;;;9.33;1.40;;;11.60;99.90;;;;;;5117550;28;20199;-37
2022/09/16 06:06:05;;;;;;;6.13;1.30;;;11.70;99.90;;;;;;5115391;28;20197;-40
2022/09/16 06:08:33;;;;;;;3.77;1.30;;;11.70;99.90;;;;;;5117231;28;20184;-39
2022/09/16 06:11:04;;;;;;;1.43;1.10;;;11.70;99.90;;;;;;5117313;28;20186;-37
2022/09/16 06:13:30;;;;;;;6.67;1.30;;;11.70;99.90;;;;;;5115242;28;20209;-38
2022/09/16 06:15:56;;;;;;;7.37;1.47;;;11.70;99.90;;;;;;5117104;28;20280;-38
2022/09/16 06:18:24;;;;;;;3.87;1.20;;;11.70;99.90;;;;;;5117144;28;20205;-38
2022/09/16 06:20:50;;;;;;;8.50;1.33;;;11.70;99.90;;;;;;5116506;28;20176;-38
2022/09/16 06:23:16;;;;;;;4.37;1.17;;;11.70;99.90;;;;;;5115281;28;20208;-38
2022/09/16 06:25:43;;;;;;;4.47;1.50;;;11.70;99.90;;;;;;5116355;28;20205;-39
2022/09/16 06:28:10;;;;;;;5.90;1.33;;;11.70;99.90;;;;;;5116404;28;20580;-37
2022/09/16 06:30:36;;;;;;;7.60;1.83;;;11.70;99.90;;;;;;5116546;28;20178;-37
2022/09/16 06:33:02;;;;;;;8.73;1.20;;;11.80;99.90;;;;;;5116499;28;20336;-39
2022/09/16 06:35:28;;;;;;;2.20;0.87;;;11.80;99.90;;;;;;5116145;28;20793;-39
2022/09/16 06:37:53;;;;;;;4.57;1.50;;;11.90;99.90;;;;;;5116543;28;20176;-39
2022/09/16 06:40:19;;;;;;;4.47;1.00;;;12.00;99.90;;;;;;5116338;28;20639;-38
2022/09/16 06:42:45;;;;;;;4.83;1.10;;;12.10;99.90;;;;;;5116003;28;20305;-41
2022/09/16 06:45:10;;;;;;;5.23;1.10;;;12.10;99.90;;;;;;5116594;28;20236;-39
2022/09/16 06:47:36;;;;;;;2.50;1.03;;;12.10;99.90;;;;;;5115979;28;20174;-38
2022/09/16 06:50:03;;;;;;;6.40;1.10;;;12.20;99.90;;;;;;5116230;27;20647;-38
2022/09/16 06:52:29;;;;;;;2.73;1.10;;;12.20;99.90;;;;;;5116841;27;20625;-37
2022/09/16 06:54:54;;;;;;;7.17;1.20;;;12.20;99.90;;;;;;5115954;27;20264;-39
2022/09/16 06:57:22;;;;;;;4.17;1.40;;;12.20;99.90;;;;;;5115886;28;20177;-39
2022/09/16 06:59:51;;;;;;;2.97;0.90;;;12.30;99.90;;;;;;5116125;28;20173;-38
2022/09/16 07:02:18;;;;;;;5.93;1.33;;;12.30;99.90;;;;;;5114303;28;20188;-42
2022/09/16 07:04:44;;;;;;;7.13;0.93;;;12.30;99.90;;;;;;5116023;28;20170;-42
2022/09/16 07:07:10;;;;;;;6.47;1.17;;;12.40;99.90;;;;;;5116023;28;20271;-42
2022/09/16 07:09:36;;;;;;;5.43;1.30;;;12.40;99.90;;;;;;5115710;28;20202;-42
2022/09/16 07:12:01;;;;;;;9.47;1.47;;;12.50;99.90;;;;;;5115878;28;20175;-41
2022/09/16 07:14:28;;;;;;;7.00;1.50;;;12.50;99.90;;;;;;5115778;27;20173;-41
2022/09/16 07:16:53;;;;;;;3.27;1.20;;;12.50;99.90;;;;;;5115343;28;20189;-41
2022/09/16 07:19:19;;;;;;;4.20;1.30;;;12.60;99.90;;;;;;5116050;28;20178;-43
2022/09/16 07:21:45;;;;;;;6.73;1.10;;;12.60;99.90;;;;;;5115240;28;20263;-41
2022/09/16 07:24:12;;;;;;;3.83;1.23;;;12.70;99.90;;;;;;5113874;28;20222;-40
2022/09/16 07:26:40;;;;;;;3.13;1.20;;;12.80;99.90;;;;;;5115303;28;20199;-42
2022/09/16 07:29:08;;;;;;;3.43;1.03;;;12.80;99.90;;;;;;5114936;28;20181;-41
2022/09/16 07:31:36;;;;;;;1.57;1.00;;;12.80;99.90;;;;;;5113076;28;20242;-43
2022/09/16 07:34:04;;;;;;;4.17;1.00;;;12.80;99.90;;;;;;5114760;28;20178;-42
2022/09/16 07:36:32;;;;;;;2.50;0.70;;;12.80;99.90;;;;;;5114693;28;20197;-43
2022/09/16 07:38:58;;;;;;;3.63;0.80;;;12.90;99.90;;;;;;5113350;28;20181;-41
2022/09/16 07:41:31;;;;;;;3.87;1.27;;;12.90;99.90;;;;;;5114870;28;20181;-43
2022/09/16 07:43:58;;;;;;;2.30;0.97;;;13.00;99.90;;;;;;5114721;28;20205;-43
2022/09/16 07:46:26;;;;;;;5.70;1.07;;;13.10;99.90;;;;;;5114707;28;20213;-42
2022/09/16 07:48:53;;;;;;;4.43;1.10;;;13.10;99.90;;;;;;5113301;28;20281;-42
2022/09/16 07:51:21;;;;;;;3.37;0.70;;;13.10;99.90;;;;;;5113406;28;20586;-44
2022/09/16 07:53:51;;;;;;;3.97;0.90;;;13.10;99.90;;;;;;5114598;28;20599;-42
2022/09/16 07:56:19;;;;;;;4.13;0.83;;;13.20;99.90;;;;;;5114640;28;20190;-41
2022/09/16 07:58:46;;;;;;;6.47;1.10;;;13.40;99.90;;;;;;5114344;28;20171;-42
2022/09/16 08:01:14;;;;;;;4.70;0.97;;;13.60;99.90;;;;;;5114521;28;20192;-43
2022/09/16 08:03:42;;;;;;;4.50;0.70;;;13.70;99.90;;;;;;5112836;28;20213;-41
2022/09/16 08:06:20;;;;;;;4.03;1.00;;;13.80;99.90;;;;;;5114160;28;20719;-43
2022/09/16 08:08:46;;;;;;;2.80;1.00;;;13.90;99.90;;;;;;5114191;28;20177;-41
2022/09/16 08:11:13;;;;;;;3.43;1.57;;;13.90;99.90;;;;;;5113007;28;20180;-42
2022/09/16 08:13:40;;;;;;;4.47;1.23;;;13.90;99.90;;;;;;5114550;28;20610;-43
2022/09/16 08:16:18;;;;;;;0.93;0.63;;;13.90;99.90;;;;;;5113358;28;20229;-43
2022/09/16 08:18:46;;;;;;;2.23;0.93;;;13.90;99.90;;;;;;5114607;28;20158;-44
2022/09/16 08:21:14;;;;;;;1.87;0.70;;;13.90;99.90;;;;;;5115069;28;20190;-43
2022/09/16 08:23:40;;;;;;;4.67;0.70;;;13.90;99.90;;;;;;5114629;28;20202;-38
2022/09/16 08:26:09;;;;;;;1.93;0.70;;;13.90;99.90;;;;;;5113049;28;20237;-38
2022/09/16 08:28:36;;;;;;;5.23;0.90;;;13.90;99.90;;;;;;5114388;28;20288;-39
2022/09/16 08:31:02;;;;;;;3.67;1.20;;;14.00;99.90;;;;;;5114543;28;20174;-37
2022/09/16 08:33:28;;;;;;;3.90;0.90;;;14.10;99.90;;;;;;5114344;28;20177;-38
2022/09/16 08:35:58;;;;;;;1.83;0.77;;;14.20;99.90;;;;;;5114249;28;20208;-38
2022/09/16 08:38:24;;;;;;;1.67;0.70;;;14.30;99.90;;;;;;5112590;28;20742;-36
2022/09/16 08:41:00;;;;;;;1.77;0.50;;;14.40;99.90;;;;;;5113746;28;20253;-39
2022/09/16 08:43:38;;;;;;;2.97;0.77;;;14.50;99.90;;;;;;5112967;28;20643;-38
2022/09/16 08:46:08;;;;;;;3.83;0.60;;;14.60;99.90;;;;;;5113965;28;20660;-39
2022/09/16 08:48:40;;;;;;;3.77;0.97;;;14.60;99.90;;;;;;5117474;28;20638;-39
2022/09/16 08:51:11;;;;;;;2.03;1.03;;;14.60;99.90;;;;;;5118359;28;20169;-38
2022/09/16 08:53:47;;;;;;;2.77;0.70;;;14.70;99.90;;;;;;5118220;28;20173;-40
2022/09/16 08:56:16;;;;;;;2.17;0.60;;;14.80;99.90;;;;;;5113815;28;20193;-38
2022/09/16 08:58:49;;;;;;;2.07;0.70;;;14.90;99.90;;;;;;5113794;28;20181;-40
2022/09/16 09:01:36;;;;;;;4.50;0.80;;;15.00;99.90;;;;;;5113653;28;20514;-37
2022/09/16 09:04:02;;;;;;;2.77;0.60;;;15.00;99.90;;;;;;5112395;28;20202;-40
2022/09/16 09:06:46;;;;;;;2.87;0.80;;;15.00;99.90;;;;;;5113430;28;20216;-38
2022/09/16 09:09:12;;;;;;;3.07;0.97;;;15.00;99.90;;;;;;5113609;28;20262;-37
2022/09/16 09:12:02;;;;;;;3.57;0.87;;;14.90;99.90;;;;;;5113829;28;20716;-38
2022/09/16 09:14:58;;;;;;;3.73;0.80;;;14.90;99.90;;;;;;5114140;28;20174;-37
2022/09/16 09:17:49;;;;;;;4.53;0.83;;;14.90;99.90;;;;;;5111972;28;20570;-37
2022/09/16 09:20:42;;;;;;;3.47;0.90;;;14.80;99.90;;;;;;5114094;28;20163;-39
2022/09/16 09:23:48;;;;;;;1.63;0.60;;;14.90;99.90;;;;;;5113507;28;20209;-39
2022/09/16 09:26:21;;;;;;;4.57;0.80;;;15.00;99.90;;;;;;5112738;28;20225;-38
2022/09/16 09:29:06;;;;;;;1.67;0.97;;;15.10;99.90;;;;;;5113089;28;20624;-37
2022/09/16 09:31:32;;;;;;;2.63;0.87;;;15.20;99.90;;;;;;5113243;28;20579;-39
2022/09/16 09:34:28;;;;;;;1.73;0.70;;;15.20;99.90;;;;;;5113153;28;20185;-40
2022/09/16 09:37:17;;;;;;;1.90;0.57;;;15.30;99.90;;;;;;5114206;28;20194;-37
2022/09/16 09:40:14;;;;;;;2.90;0.90;;;15.40;99.90;;;;;;5113653;28;20635;-37
2022/09/16 09:42:49;;;;;;;1.50;0.50;;;15.40;99.90;;;;;;5111138;28;20207;-39
2022/09/16 09:45:40;;;;;;;2.37;0.50;;;15.40;99.90;;;;;;5113033;28;20758;-39
2022/09/16 09:48:15;;;;;;;2.27;0.80;;;15.40;99.90;;;;;;5113340;28;20155;-37
2022/09/16 09:50:50;;;;;;;3.77;0.80;;;15.50;99.90;;;;;;5113216;28;20599;-38
2022/09/16 09:53:28;;;;;;;1.73;0.53;;;15.60;99.90;;;;;;5113352;28;20158;-38
2022/09/16 09:56:12;;;;;;;1.57;0.60;;;15.60;99.90;;;;;;5115635;28;20198;-37
2022/09/16 09:58:49;;;;;;;3.13;0.60;;;15.70;99.90;;;;;;5116920;28;20166;-38
2022/09/16 10:01:15;;;;;;;2.83;0.93;;;15.70;99.90;;;;;;5116738;28;20174;-39
2022/09/16 10:03:41;;;;;;;5.40;0.80;;;15.70;99.90;;;;;;5116804;28;20255;-41
2022/09/16 10:06:10;;;;;;;2.53;0.50;;;15.70;99.90;;;;;;5116752;28;20612;-39
2022/09/16 10:08:45;;;;;;;3.40;0.50;;;15.90;99.90;;;;;;5117064;28;20193;-40
2022/09/16 10:11:25;;;;;;;3.53;1.20;;;16.00;99.90;;;;;;5117030;28;20201;-38
2022/09/16 10:13:53;;;;;;;2.47;0.87;;;16.10;99.90;;;;;;5117021;28;20544;-38
2022/09/16 10:16:24;;;;;;;1.20;0.67;;;16.30;99.90;;;;;;5117006;28;20201;-38
2022/09/16 10:19:21;;;;;;;6.83;0.90;;;16.30;99.90;;;;;;5115875;28;20533;-40
2022/09/16 10:21:54;;;;;;;1.77;0.90;;;16.40;99.90;;;;;;5114289;28;20194;-40
2022/09/16 10:24:28;;;;;;;5.67;0.90;;;16.40;99.90;;;;;;5116123;28;20209;-40
2022/09/16 10:26:54;;;;;;;2.13;0.80;;;16.50;99.90;;;;;;5116010;28;20285;-40
2022/09/16 10:29:19;;;;;;;3.17;0.80;;;16.50;99.90;;;;;;5116333;28;20209;-40
2022/09/16 10:31:45;;;;;;;1.87;0.90;;;16.50;99.90;;;;;;5116267;28;20257;-40
2022/09/16 10:34:28;;;;;;;3.33;0.90;;;16.70;99.90;;;;;;5115905;28;20179;-38
2022/09/16 10:36:58;;;;;;;3.53;0.90;;;16.60;99.90;;;;;;5115954;28;20338;-39
2022/09/16 10:39:25;;;;;;;2.43;0.80;;;16.70;99.90;;;;;;5116090;28;20186;-38
2022/09/16 10:41:51;;;;;;;1.00;0.60;;;16.70;99.90;;;;;;5115876;28;20178;-39
2022/09/16 10:44:24;;;;;;;1.70;0.53;;;16.70;99.90;;;;;;5114462;28;20675;-41
2022/09/16 10:46:57;;;;;;;1.77;0.60;;;16.70;99.90;;;;;;5115660;28;20277;-38
2022/09/16 10:49:37;;;;;;;5.50;0.80;;;16.80;99.90;;;;;;5115779;28;20155;-40
2022/09/16 10:52:08;;;;;;;3.90;0.67;;;16.80;99.90;;;;;;5115594;28;20552;-39
2022/09/16 10:54:34;;;;;;;3.87;0.73;;;16.70;99.90;;;;;;5115729;28;20188;-41
2022/09/16 10:56:59;;;;;;;2.60;0.80;;;16.70;99.90;;;;;;5115747;28;20186;-42
2022/09/16 10:59:25;;;;;;;1.90;0.53;;;16.60;99.90;;;;;;5115478;28;20693;-39
2022/09/16 11:02:20;;;;;;;1.97;0.57;;;16.40;99.90;;;;;;5115711;28;20562;-38
2022/09/16 11:05:15;;;;;;;0.83;0.63;;;16.20;99.90;;;;;;5115289;28;20190;-42
2022/09/16 11:07:52;;;;;;;1.33;0.50;;;15.90;99.90;;;;;;5114488;28;20170;-40
2022/09/16 11:10:42;;;;;;;2.97;0.83;;;15.80;99.90;;;;;;5115521;28;20163;-39
2022/09/16 11:13:17;;;;;;;2.93;0.77;;;15.70;99.90;;;;;;5115505;28;20612;-40
2022/09/16 11:16:02;;;;;;;2.93;0.90;;;15.60;99.90;;;;;;5115226;28;20201;-41
2022/09/16 11:18:50;;;;;;;3.37;0.80;;;15.60;99.90;;;;;;5115395;28;20163;-43
2022/09/16 11:21:37;;;;;;;2.90;0.67;;;15.50;99.90;;;;;;5114990;28;20647;-44
2022/09/16 11:24:39;;;;;;;4.63;1.00;;;15.50;99.90;;;;;;5114849;28;20206;-41
2022/09/16 11:27:46;;;;;;;2.80;0.87;;;15.50;99.90;;;;;;5111731;28;20202;-39
2022/09/16 11:30:18;;;;;;;3.20;1.00;;;15.60;99.90;;;;;;5114970;28;20245;-39
2022/09/16 11:33:05;;;;;;;3.40;0.70;;;15.80;99.90;;;;;;5113528;28;20182;-41
2022/09/16 11:35:54;;;;;;;6.97;0.60;;;15.90;99.90;;;;;;5114885;28;20213;-40
2022/09/16 11:38:37;;;;;;;3.90;0.97;;;15.90;99.90;;;;;;5115002;28;20255;-40
2022/09/16 11:41:44;;;;;;;3.07;0.80;;;15.90;99.90;;;;;;5115204;28;20233;-39
2022/09/16 11:44:23;;;;;;;5.37;0.80;;;15.90;99.90;;;;;;5114475;28;20182;-43
2022/09/16 11:47:13;;;;;;;2.63;0.87;;;15.90;99.90;;;;;;5114773;28;20190;-41
2022/09/16 11:50:12;;;;;;;1.57;0.40;;;15.80;99.90;;;;;;5114766;28;20173;-39
2022/09/16 11:53:04;;;;;;;0.90;0.40;;;15.60;99.90;;;;;;5114605;28;20716;-38
2022/09/16 11:55:52;;;;;;;4.17;0.70;;;15.10;99.90;;;;;;5114334;28;20250;-39
2022/09/16 11:58:42;;;;;;;2.00;0.40;;;14.80;99.90;;;;;;5114537;28;20628;-40
2022/09/16 12:01:31;;;;;;;0.40;0.37;;;14.50;99.90;;;;;;5114562;28;20245;-40
2022/09/16 12:04:24;;;;;;;1.73;0.40;;;14.20;99.90;;;;;;5113651;28;20201;-41
2022/09/16 12:07:19;;;;;;;1.00;0.30;;;14.00;99.90;;;;;;5111904;28;20230;-41
2022/09/16 12:09:52;;;;;;;1.40;0.50;;;13.80;99.90;;;;;;5114119;28;20587;-40
2022/09/16 12:12:22;;;;;;;0.87;0.30;;;13.70;99.90;;;;;;5114395;28;20544;-40
2022/09/16 12:15:04;;;;;;;1.83;0.40;;;13.40;99.90;;;;;;5112745;28;20676;-41
2022/09/16 12:17:38;;;;;;;1.30;0.50;;;13.20;99.90;;;;;;5114151;28;20620;-39
2022/09/16 12:20:17;;;;;;;1.53;0.57;;;13.10;99.90;;;;;;5114151;28;20155;-40
2022/09/16 12:23:03;;;;;;;1.20;0.20;;;13.00;99.90;;;;;;5114169;28;20190;-40
2022/09/16 12:25:39;;;;;;;2.67;0.50;;;12.80;99.90;;;;;;5113601;28;20738;-43
2022/09/16 12:28:44;;;;;;;0.80;0.60;;;12.80;99.90;;;;;;5114108;28;20154;-42
2022/09/16 12:31:18;;;;;;;2.73;0.57;;;12.80;99.90;;;;;;5109691;28;20193;-42
2022/09/16 12:33:51;;;;;;;3.40;1.23;;;12.70;99.90;;;;;;5114331;28;20254;-43
2022/09/16 12:36:23;;;;;;;1.47;0.60;;;12.70;99.90;;;;;;5113582;28;20223;-40
2022/09/16 12:38:48;;;;;;;1.70;0.57;;;12.50;99.90;;;;;;5113933;28;20162;-41
2022/09/16 12:41:51;;;;;;;1.17;0.50;;;12.40;99.90;;;;;;5112663;28;20239;-42
2022/09/16 12:44:34;;;;;;;1.63;0.60;;;12.30;99.90;;;;;;5113834;28;20545;-41
2022/09/16 12:47:14;;;;;;;1.43;0.60;;;12.20;99.90;;;;;;5113983;28;20243;-42
2022/09/16 12:49:45;;;;;;;2.30;0.53;;;12.20;99.90;;;;;;5114061;28;20158;-40
2022/09/16 12:52:32;;;;;;;2.97;1.00;;;12.10;99.90;;;;;;5113743;28;20167;-39
2022/09/16 12:54:58;;;;;;;1.30;0.43;;;12.10;99.90;;;;;;5113667;28;20186;-42
2022/09/16 12:58:07;;;;;;;3.27;0.40;;;12.10;99.90;;;;;;5113656;28;20176;-39
2022/09/16 13:00:49;;;;;;;2.13;0.50;;;12.20;99.90;;;;;;5114165;28;20155;-41
2022/09/16 13:03:19;;;;;;;1.10;0.30;;;12.20;99.90;;;;;;5113543;28;20240;-42
2022/09/16 13:05:49;;;;;;;1.77;0.40;;;12.30;99.90;;;;;;5113287;28;20194;-44
2022/09/16 13:08:26;;;;;;;0.83;0.40;;;12.30;99.90;;;;;;5113642;28;20170;-42
2022/09/16 13:10:59;;;;;;;2.60;0.60;;;12.40;99.90;;;;;;5113844;28;20158;-42
2022/09/16 13:13:41;;;;;;;1.00;0.20;;;12.50;99.90;;;;;;5113545;28;20174;-43
2022/09/16 13:16:08;;;;;;;1.43;0.30;;;12.70;99.90;;;;;;5113573;28;20664;-42
2022/09/16 13:18:43;;;;;;;2.23;0.40;;;12.80;99.90;;;;;;5113290;28;20178;-41